Time;durP1;ratioP1;P1;durP2;ratioP2;P2;SDS_P1;SDS_P2;PMS_P1;PMS_P2;Temp;Humidity;BMP_temperature;BMP_pressure;BME280_temperature;BME280_humidity;BME280_pressure;Samples;Min_cycle;Max_cycle;Signal;HPM_P1;HPM_P2
2022/01/07 00:01:39;;;;;;;1.30;1.20;;;-1.60;99.90;;;;;;5069926;28;20505;-57
2022/01/07 00:04:07;;;;;;;2.93;1.77;;;-1.50;99.90;;;;;;5070755;28;20468;-58
2022/01/07 00:06:34;;;;;;;0.93;0.87;;;-1.40;99.90;;;;;;5069770;28;20456;-59
2022/01/07 00:09:01;;;;;;;1.83;1.10;;;-1.40;99.90;;;;;;5069481;28;20509;-58
2022/01/07 00:11:29;;;;;;;2.30;1.43;;;-1.50;99.90;;;;;;5070701;28;20440;-63
2022/01/07 00:13:57;;;;;;;3.50;1.30;;;-1.60;99.90;;;;;;5069833;28;20970;-59
2022/01/07 00:16:24;;;;;;;1.43;0.60;;;-1.60;99.90;;;;;;5070331;28;20890;-58
2022/01/07 00:18:51;;;;;;;0.90;0.87;;;-2.00;99.90;;;;;;5069504;28;20496;-57
2022/01/07 00:21:18;;;;;;;0.70;0.70;;;-2.20;99.90;;;;;;5069747;28;20946;-58
2022/01/07 00:23:45;;;;;;;1.57;0.80;;;-2.20;99.90;;;;;;5069422;28;20485;-59
2022/01/07 00:26:12;;;;;;;1.30;1.20;;;-2.20;99.90;;;;;;5070975;28;20448;-58
2022/01/07 00:28:39;;;;;;;1.27;1.17;;;-2.20;99.90;;;;;;5069839;28;21021;-58
2022/01/07 00:31:08;;;;;;;0.80;0.63;;;-2.10;99.90;;;;;;5069553;28;20874;-58
2022/01/07 00:33:35;;;;;;;0.77;0.70;;;-2.20;99.90;;;;;;5069287;28;20548;-58
2022/01/07 00:36:02;;;;;;;1.33;0.83;;;-2.50;99.90;;;;;;5069448;28;20468;-58
2022/01/07 00:38:30;;;;;;;1.10;1.00;;;-2.70;99.90;;;;;;5069937;28;20461;-57
2022/01/07 00:40:57;;;;;;;1.00;0.90;;;-2.70;99.90;;;;;;5070204;28;20956;-59
2022/01/07 00:43:24;;;;;;;2.40;0.83;;;-2.70;99.90;;;;;;5069524;28;20479;-58
2022/01/07 00:45:51;;;;;;;1.73;1.20;;;-2.50;99.90;;;;;;5070263;28;20468;-57
2022/01/07 00:48:19;;;;;;;0.97;0.80;;;-2.30;99.90;;;;;;5074254;28;21043;-59
2022/01/07 00:50:46;;;;;;;1.30;1.20;;;-2.20;99.90;;;;;;5069932;28;20505;-58
2022/01/07 00:53:13;;;;;;;1.20;1.10;;;-2.20;99.90;;;;;;5069197;28;20474;-58
2022/01/07 00:55:41;;;;;;;1.20;1.10;;;-2.60;99.90;;;;;;5073281;28;20483;-58
2022/01/07 00:58:08;;;;;;;1.17;1.03;;;-2.70;99.90;;;;;;5072910;28;20501;-58
2022/01/07 01:00:36;;;;;;;1.20;1.10;;;-2.90;99.90;;;;;;5072744;28;20944;-59
2022/01/07 01:03:03;;;;;;;1.50;1.30;;;-2.80;99.90;;;;;;5073287;28;20467;-58
2022/01/07 01:05:33;;;;;;;1.20;1.00;;;-2.70;99.90;;;;;;5072265;28;20477;-59
2022/01/07 01:08:00;;;;;;;1.00;0.80;;;-2.60;99.90;;;;;;5072349;28;20455;-58
2022/01/07 01:10:27;;;;;;;2.60;1.10;;;-2.50;99.90;;;;;;5073064;28;20464;-58
2022/01/07 01:12:55;;;;;;;1.30;1.20;;;-2.50;99.90;;;;;;5073286;28;20510;-58
2022/01/07 01:15:24;;;;;;;1.33;1.00;;;-2.40;99.90;;;;;;5072491;28;20472;-58
2022/01/07 01:17:53;;;;;;;1.73;1.30;;;-2.40;99.90;;;;;;5071965;28;20468;-58
2022/01/07 01:20:21;;;;;;;1.30;1.20;;;-2.30;99.90;;;;;;5072190;28;20886;-58
2022/01/07 01:22:50;;;;;;;1.67;1.30;;;-2.20;99.90;;;;;;5072285;28;20957;-57
2022/01/07 01:25:17;;;;;;;5.73;1.60;;;-2.20;99.90;;;;;;5078027;28;20480;-57
2022/01/07 01:27:45;;;;;;;0.67;0.67;;;-2.20;99.90;;;;;;5072451;28;20482;-59
2022/01/07 01:30:17;;;;;;;0.70;0.63;;;-2.20;99.90;;;;;;5075453;28;20515;-57
2022/01/07 01:32:44;;;;;;;0.70;0.70;;;-2.20;99.90;;;;;;5073194;28;20445;-59
2022/01/07 01:35:12;;;;;;;0.83;0.80;;;-2.20;99.90;;;;;;5072636;28;20472;-58
2022/01/07 01:37:39;;;;;;;0.80;0.67;;;-2.30;99.90;;;;;;5071925;28;20477;-58
2022/01/07 01:40:11;;;;;;;0.73;0.73;;;-2.50;99.90;;;;;;5072708;28;20988;-58
2022/01/07 01:42:38;;;;;;;0.70;0.70;;;-2.60;99.90;;;;;;5072114;28;20476;-59
2022/01/07 01:45:07;;;;;;;0.77;0.70;;;-2.50;99.90;;;;;;5072573;28;20527;-57
2022/01/07 01:47:34;;;;;;;0.80;0.80;;;-2.50;99.90;;;;;;5070568;28;20476;-58
2022/01/07 01:50:01;;;;;;;1.00;1.00;;;-2.40;99.90;;;;;;5071692;28;20525;-59
2022/01/07 01:52:28;;;;;;;0.80;0.80;;;-2.50;99.90;;;;;;5070543;28;20458;-56
2022/01/07 01:54:55;;;;;;;0.73;0.70;;;-2.40;99.90;;;;;;5071247;28;20895;-57
2022/01/07 01:57:23;;;;;;;0.83;0.83;;;-2.40;99.90;;;;;;5071530;28;20468;-57
2022/01/07 01:59:50;;;;;;;0.60;0.50;;;-2.30;99.90;;;;;;5070947;28;20501;-58
2022/01/07 02:02:17;;;;;;;0.70;0.70;;;-2.30;99.90;;;;;;5071446;28;20750;-57
2022/01/07 02:04:44;;;;;;;0.83;0.73;;;-2.30;99.90;;;;;;5071684;28;20475;-58
2022/01/07 02:07:13;;;;;;;0.70;0.60;;;-2.30;99.90;;;;;;5071115;28;20869;-57
2022/01/07 02:09:40;;;;;;;0.70;0.63;;;-2.40;99.90;;;;;;5071202;28;20578;-58
2022/01/07 02:12:08;;;;;;;1.10;0.70;;;-2.40;99.90;;;;;;5071390;28;20538;-58
2022/01/07 02:14:37;;;;;;;1.30;0.83;;;-2.50;99.90;;;;;;5071762;28;20468;-57
2022/01/07 02:17:08;;;;;;;0.97;0.80;;;-2.50;99.90;;;;;;5071545;28;20534;-56
2022/01/07 02:19:37;;;;;;;0.97;0.80;;;-2.50;99.90;;;;;;5070881;28;20548;-57
2022/01/07 02:22:05;;;;;;;0.70;0.70;;;-2.40;99.90;;;;;;5073816;28;20479;-57
2022/01/07 02:24:34;;;;;;;2.00;0.70;;;-2.40;99.90;;;;;;5074261;28;20794;-56
2022/01/07 02:27:01;;;;;;;0.60;0.50;;;-2.40;99.90;;;;;;5071033;28;20483;-59
2022/01/07 02:29:28;;;;;;;0.97;0.70;;;-2.40;99.90;;;;;;5070326;28;20988;-57
2022/01/07 02:31:55;;;;;;;2.20;0.80;;;-2.60;99.90;;;;;;5070881;28;20479;-58
2022/01/07 02:34:22;;;;;;;0.70;0.60;;;-2.50;99.90;;;;;;5070338;28;20472;-58
2022/01/07 02:36:50;;;;;;;0.93;0.70;;;-2.60;99.90;;;;;;5069859;28;20448;-58
2022/01/07 02:39:17;;;;;;;1.03;0.70;;;-2.60;99.90;;;;;;5070902;28;20484;-58
2022/01/07 02:41:44;;;;;;;1.00;0.90;;;-2.60;99.90;;;;;;5072362;28;20961;-57
2022/01/07 02:44:11;;;;;;;1.33;0.80;;;-2.60;99.90;;;;;;5070520;28;20476;-58
2022/01/07 02:46:38;;;;;;;0.80;0.70;;;-2.60;99.90;;;;;;5070489;28;20492;-59
2022/01/07 02:49:11;;;;;;;0.90;0.90;;;-2.70;99.90;;;;;;5070611;28;20524;-57
2022/01/07 02:51:39;;;;;;;1.10;1.07;;;-2.70;99.90;;;;;;5069951;28;20468;-58
2022/01/07 02:54:14;;;;;;;0.60;0.53;;;-2.80;99.90;;;;;;5070935;28;20963;-59
2022/01/07 02:56:41;;;;;;;5.70;0.70;;;-2.80;99.90;;;;;;5071004;28;20475;-57
2022/01/07 02:59:10;;;;;;;0.93;0.93;;;-2.80;99.90;;;;;;5069621;28;20517;-59
2022/01/07 03:01:38;;;;;;;0.70;0.70;;;-3.10;99.90;;;;;;5070411;28;20487;-58
2022/01/07 03:04:06;;;;;;;1.20;1.10;;;-3.30;99.90;;;;;;5070572;28;20465;-58
2022/01/07 03:06:33;;;;;;;1.03;1.03;;;-3.20;99.90;;;;;;5070624;28;20533;-58
2022/01/07 03:09:00;;;;;;;0.80;0.80;;;-3.10;99.90;;;;;;5069977;28;20944;-56
2022/01/07 03:11:29;;;;;;;1.20;1.10;;;-3.10;99.90;;;;;;5069884;28;20965;-59
2022/01/07 03:13:56;;;;;;;0.93;0.73;;;-3.00;99.90;;;;;;5070430;28;20476;-57
2022/01/07 03:16:23;;;;;;;0.80;0.70;;;-3.00;99.90;;;;;;5069240;28;20475;-57
2022/01/07 03:18:50;;;;;;;1.43;1.00;;;-3.00;99.90;;;;;;5069995;28;20885;-58
2022/01/07 03:21:17;;;;;;;1.37;1.20;;;-3.00;99.90;;;;;;5069835;28;20478;-59
2022/01/07 03:23:45;;;;;;;0.80;0.80;;;-3.00;99.90;;;;;;5075877;28;20461;-58
2022/01/07 03:26:12;;;;;;;0.93;0.93;;;-2.90;99.90;;;;;;5070221;28;20450;-58
2022/01/07 03:28:40;;;;;;;0.73;0.73;;;-2.90;99.90;;;;;;5069969;28;20490;-57
2022/01/07 03:31:08;;;;;;;1.37;1.00;;;-2.80;99.90;;;;;;5069350;28;20930;-56
2022/01/07 03:33:35;;;;;;;1.50;0.97;;;-2.80;99.90;;;;;;5069518;28;20480;-58
2022/01/07 03:36:03;;;;;;;0.60;0.60;;;-2.80;99.90;;;;;;5069129;28;20905;-57
2022/01/07 03:38:29;;;;;;;0.70;0.70;;;-2.80;99.90;;;;;;5069465;28;20496;-57
2022/01/07 03:40:57;;;;;;;1.67;0.90;;;-2.80;99.90;;;;;;5070081;28;20472;-57
2022/01/07 03:43:24;;;;;;;1.47;0.93;;;-2.80;99.90;;;;;;5069426;28;20443;-58
2022/01/07 03:45:53;;;;;;;0.60;0.50;;;-2.80;99.90;;;;;;5069748;28;20481;-58
2022/01/07 03:48:20;;;;;;;0.70;0.70;;;-2.90;99.90;;;;;;5069405;28;20553;-60
2022/01/07 03:50:47;;;;;;;1.07;0.97;;;-2.90;99.90;;;;;;5069295;28;20531;-57
2022/01/07 03:53:14;;;;;;;0.60;0.50;;;-2.90;99.90;;;;;;5075739;28;20472;-58
2022/01/07 03:55:41;;;;;;;0.67;0.67;;;-2.90;99.90;;;;;;5069481;28;20790;-56
2022/01/07 03:58:08;;;;;;;0.60;0.60;;;-3.00;99.90;;;;;;5069289;28;20476;-59
2022/01/07 04:00:37;;;;;;;1.27;1.17;;;-3.00;99.90;;;;;;5069647;28;20523;-57
2022/01/07 04:03:08;;;;;;;0.70;0.70;;;-3.00;99.90;;;;;;5069205;28;20853;-59
2022/01/07 04:05:35;;;;;;;1.47;0.70;;;-3.10;99.90;;;;;;5069584;28;20460;-58
2022/01/07 04:08:02;;;;;;;0.60;0.60;;;-3.10;99.90;;;;;;5069657;28;20908;-57
2022/01/07 04:10:29;;;;;;;0.53;0.53;;;-3.10;99.90;;;;;;5068448;28;20500;-57
2022/01/07 04:12:56;;;;;;;0.70;0.70;;;-3.20;99.90;;;;;;5069606;28;20503;-57
2022/01/07 04:15:23;;;;;;;0.60;0.60;;;-3.20;99.90;;;;;;5070090;28;20475;-59
2022/01/07 04:17:52;;;;;;;0.50;0.40;;;-3.20;99.90;;;;;;5069344;28;20456;-57
2022/01/07 04:20:21;;;;;;;0.60;0.60;;;-3.10;99.90;;;;;;5068757;28;20470;-57
2022/01/07 04:22:49;;;;;;;1.37;0.70;;;-3.20;99.90;;;;;;5069732;28;20483;-57
2022/01/07 04:25:18;;;;;;;0.73;0.73;;;-3.30;99.90;;;;;;5075282;28;20491;-58
2022/01/07 04:27:46;;;;;;;3.70;1.10;;;;;;;;;;5069546;28;20478;-57
2022/01/07 04:30:14;;;;;;;2.10;0.90;;;-4.20;99.90;;;;;;5073088;28;20483;-57
2022/01/07 04:32:42;;;;;;;0.93;0.80;;;-4.30;99.90;;;;;;5072248;28;20960;-58
2022/01/07 04:35:10;;;;;;;0.80;0.80;;;-4.40;99.90;;;;;;5071841;28;20449;-58
2022/01/07 04:37:39;;;;;;;0.80;0.80;;;-4.10;99.90;;;;;;5071378;28;20941;-57
2022/01/07 04:40:09;;;;;;;0.80;0.80;;;-3.90;99.90;;;;;;5073548;28;20987;-57
2022/01/07 04:42:36;;;;;;;1.07;0.70;;;-3.70;99.90;;;;;;5072741;28;20491;-56
2022/01/07 04:45:04;;;;;;;1.27;0.80;;;-3.60;99.90;;;;;;5072938;28;20468;-56
2022/01/07 04:47:31;;;;;;;1.10;1.00;;;-3.50;99.90;;;;;;5072555;28;20479;-58
2022/01/07 04:49:59;;;;;;;0.83;0.80;;;-3.50;99.90;;;;;;5072740;28;20562;-57
2022/01/07 04:52:25;;;;;;;0.63;0.60;;;-3.50;99.90;;;;;;5079588;28;20471;-57
2022/01/07 04:54:54;;;;;;;0.73;0.73;;;-3.60;99.90;;;;;;5072891;28;20471;-56
2022/01/07 04:57:21;;;;;;;0.90;0.80;;;-3.60;99.90;;;;;;5072192;28;20892;-57
2022/01/07 04:59:48;;;;;;;1.13;0.80;;;-3.50;99.90;;;;;;5072242;28;20500;-58
2022/01/07 05:02:14;;;;;;;0.90;0.70;;;-3.50;99.90;;;;;;5073304;28;20471;-56
2022/01/07 05:04:41;;;;;;;0.50;0.50;;;-3.50;99.90;;;;;;5072935;28;20866;-56
2022/01/07 05:07:08;;;;;;;0.70;0.70;;;-3.50;99.90;;;;;;5072609;28;20472;-57
2022/01/07 05:09:35;;;;;;;0.67;0.67;;;-3.40;99.90;;;;;;5071920;28;20519;-58
2022/01/07 05:12:04;;;;;;;0.80;0.80;;;-3.30;99.90;;;;;;5071838;28;20484;-60
2022/01/07 05:14:31;;;;;;;1.37;1.27;;;-3.30;99.90;;;;;;5072952;28;20956;-58
2022/01/07 05:16:58;;;;;;;1.20;1.10;;;-3.30;99.90;;;;;;5072686;28;20468;-56
2022/01/07 05:19:25;;;;;;;0.80;0.70;;;-3.30;99.90;;;;;;5072043;28;20475;-58
2022/01/07 05:21:52;;;;;;;0.77;0.60;;;-3.30;99.90;;;;;;5073354;28;20444;-57
2022/01/07 05:24:19;;;;;;;1.40;1.10;;;-3.30;99.90;;;;;;5076716;28;20479;-59
2022/01/07 05:26:46;;;;;;;1.77;1.00;;;-3.30;99.90;;;;;;5072188;28;20973;-57
2022/01/07 05:29:14;;;;;;;0.90;0.90;;;-3.30;99.90;;;;;;5072236;28;20511;-58
2022/01/07 05:31:41;;;;;;;0.60;0.50;;;-3.30;99.90;;;;;;5071023;28;20491;-57
2022/01/07 05:34:08;;;;;;;0.70;0.63;;;-3.30;99.90;;;;;;5069212;28;20483;-57
2022/01/07 05:36:37;;;;;;;1.20;1.10;;;-3.30;99.90;;;;;;5071591;28;20480;-57
2022/01/07 05:39:05;;;;;;;0.93;0.80;;;-3.30;99.90;;;;;;5072507;28;20460;-57
2022/01/07 05:41:32;;;;;;;1.03;0.70;;;-3.30;99.90;;;;;;5077261;28;20444;-58
2022/01/07 05:43:59;;;;;;;1.33;1.10;;;-3.40;99.90;;;;;;5071199;28;20574;-57
2022/01/07 05:46:28;;;;;;;2.63;1.67;;;-4.00;99.90;;;;;;5070034;28;20484;-57
2022/01/07 05:48:55;;;;;;;1.40;1.30;;;-4.00;99.90;;;;;;5064316;28;20562;-57
2022/01/07 05:51:22;;;;;;;1.43;1.30;;;-4.20;99.90;;;;;;5070328;28;20897;-58
2022/01/07 05:53:48;;;;;;;4.13;2.90;;;-4.00;99.90;;;;;;5066479;28;20473;-59
2022/01/07 05:56:16;;;;;;;2.30;2.00;;;-3.90;99.90;;;;;;5070746;28;20965;-57
2022/01/07 05:58:43;;;;;;;2.00;1.80;;;-3.80;99.90;;;;;;5092612;22;20473;-56
2022/01/07 06:01:11;;;;;;;1.73;1.50;;;-3.80;99.90;;;;;;5020554;28;20471;-49
2022/01/07 06:03:39;;;;;;;2.70;2.20;;;-3.70;99.90;;;;;;5019251;28;20454;-50
2022/01/07 06:06:06;;;;;;;1.50;1.40;;;-3.90;99.90;;;;;;5013753;28;20455;-50
2022/01/07 06:08:33;;;;;;;1.47;1.37;;;-3.90;99.90;;;;;;5011175;28;20552;-49
2022/01/07 06:11:00;;;;;;;1.50;1.30;;;-4.10;99.90;;;;;;5012906;28;20513;-50
2022/01/07 06:13:27;;;;;;;1.30;1.20;;;-4.60;99.90;;;;;;5005308;28;20515;-50
2022/01/07 06:15:54;;;;;;;1.43;1.33;;;-4.50;99.90;;;;;;5012371;28;20450;-50
2022/01/07 06:18:21;;;;;;;1.33;1.20;;;-4.30;99.90;;;;;;5011411;28;20479;-50
2022/01/07 06:20:50;;;;;;;3.20;3.00;;;-4.20;99.90;;;;;;5008408;28;20562;-53
2022/01/07 06:23:17;;;;;;;3.00;2.80;;;-4.00;99.90;;;;;;5008618;28;20551;-50
2022/01/07 06:25:48;;;;;;;3.53;3.23;;;-4.00;99.90;;;;;;5013575;28;20454;-50
2022/01/07 06:28:15;;;;;;;3.50;2.17;;;-3.90;99.90;;;;;;5015524;28;20501;-50
2022/01/07 06:30:42;;;;;;;1.87;1.70;;;-3.90;99.90;;;;;;5020472;28;20474;-51
2022/01/07 06:33:09;;;;;;;1.40;1.30;;;-4.40;99.90;;;;;;5018471;28;20501;-52
2022/01/07 06:35:36;;;;;;;1.27;1.20;;;-4.70;99.90;;;;;;5010152;28;20484;-51
2022/01/07 06:38:05;;;;;;;1.10;1.00;;;-4.90;99.90;;;;;;5021117;28;20481;-53
2022/01/07 06:40:32;;;;;;;1.33;1.17;;;-4.70;99.90;;;;;;5021686;28;20310;-51
2022/01/07 06:42:59;;;;;;;1.70;1.60;;;-4.50;99.90;;;;;;5020874;28;20478;-52
2022/01/07 06:45:26;;;;;;;5.30;3.77;;;-4.50;99.90;;;;;;5012774;28;20533;-49
2022/01/07 06:47:53;;;;;;;4.83;3.77;;;-4.30;99.90;;;;;;5019333;28;20952;-51
2022/01/07 06:50:20;;;;;;;6.27;3.73;;;-4.20;99.90;;;;;;5020509;28;20502;-53
2022/01/07 06:52:47;;;;;;;5.60;3.50;;;-4.20;99.90;;;;;;5017084;28;20481;-51
2022/01/07 06:55:15;;;;;;;3.23;2.93;;;-4.10;99.90;;;;;;5015864;28;20476;-50
2022/01/07 06:57:42;;;;;;;4.87;2.60;;;-4.10;99.90;;;;;;5019083;28;20495;-50
2022/01/07 07:00:10;;;;;;;3.23;2.27;;;-4.10;99.90;;;;;;5026730;28;20918;-50
2022/01/07 07:02:37;;;;;;;4.40;3.50;;;-4.10;99.90;;;;;;5013545;28;20481;-51
2022/01/07 07:05:04;;;;;;;6.43;5.30;;;-4.40;99.90;;;;;;5015756;28;20536;-49
2022/01/07 07:07:31;;;;;;;4.53;3.83;;;-4.30;99.90;;;;;;5017448;28;20474;-49
2022/01/07 07:09:58;;;;;;;2.83;2.53;;;-4.10;99.90;;;;;;5018981;28;20549;-51
2022/01/07 07:12:27;;;;;;;4.00;3.43;;;-4.00;99.90;;;;;;5024743;28;20973;-51
2022/01/07 07:14:53;;;;;;;2.67;2.00;;;-3.90;99.90;;;;;;5015210;28;20978;-52
2022/01/07 07:17:20;;;;;;;3.87;3.03;;;-3.80;99.90;;;;;;5015619;28;20877;-50
2022/01/07 07:19:48;;;;;;;4.60;3.00;;;-3.80;99.90;;;;;;5017530;28;20462;-50
2022/01/07 07:22:15;;;;;;;3.20;2.90;;;-3.80;99.90;;;;;;5012593;28;20442;-50
2022/01/07 07:24:42;;;;;;;3.20;2.23;;;-3.90;99.90;;;;;;5019142;28;21171;-49
2022/01/07 07:27:09;;;;;;;13.07;11.70;;;-4.00;99.90;;;;;;5011870;28;20482;-52
2022/01/07 07:29:37;;;;;;;3.90;3.40;;;-4.30;99.90;;;;;;5014204;28;20511;-50
2022/01/07 07:32:08;;;;;;;4.73;4.13;;;-4.30;99.90;;;;;;5007376;28;20939;-50
2022/01/07 07:34:57;;;;;;;4.67;4.20;;;-4.20;99.90;;;;;;5009975;28;20455;-51
2022/01/07 07:37:24;;;;;;;10.87;7.93;;;-4.10;99.90;;;;;;5010343;28;20986;-50
2022/01/07 07:39:51;;;;;;;5.40;4.80;;;-4.00;99.90;;;;;;5008663;28;20520;-47
2022/01/07 07:42:18;;;;;;;3.47;3.17;;;-4.10;99.90;;;;;;5007632;28;20563;-51
2022/01/07 07:44:46;;;;;;;4.73;2.40;;;-4.60;99.90;;;;;;5017957;28;20477;-52
2022/01/07 07:47:13;;;;;;;2.80;2.60;;;-5.10;99.90;;;;;;5007718;28;20451;-51
2022/01/07 07:49:40;;;;;;;6.03;2.40;;;-5.30;99.90;;;;;;5019823;28;20540;-49
2022/01/07 07:52:08;;;;;;;3.27;2.30;;;-5.50;99.90;;;;;;5015023;28;20470;-50
2022/01/07 07:54:34;;;;;;;1.70;1.60;;;-5.60;99.90;;;;;;5017353;28;20983;-50
2022/01/07 07:57:01;;;;;;;3.20;2.20;;;-5.80;99.90;;;;;;5024306;28;20470;-52
2022/01/07 07:59:28;;;;;;;3.53;3.23;;;-5.80;99.90;;;;;;5022160;28;20466;-49
2022/01/07 08:01:57;;;;;;;8.50;5.43;;;-5.80;99.90;;;;;;5022887;28;20879;-50
2022/01/07 08:04:24;;;;;;;7.80;6.10;;;-5.60;99.90;;;;;;5025986;28;20477;-51
2022/01/07 08:06:51;;;;;;;7.40;5.63;;;-5.30;99.90;;;;;;5018006;28;20471;-50
2022/01/07 08:09:18;;;;;;;7.10;4.50;;;-5.00;99.90;;;;;;5024902;28;20503;-51
2022/01/07 08:11:51;;;;;;;4.23;3.20;;;-4.70;99.90;;;;;;5023897;28;20445;-49
2022/01/07 08:17:06;;;;;;;2.83;2.40;;;-4.40;99.90;;;;;;5015503;28;20430;-49
2022/01/07 08:19:33;;;;;;;3.10;2.47;;;-4.20;99.90;;;;;;5019106;28;20741;-50
2022/01/07 08:22:00;;;;;;;4.90;3.30;;;-4.10;99.90;;;;;;5025499;28;20582;-51
2022/01/07 08:24:27;;;;;;;4.23;3.83;;;-4.10;99.90;;;;;;5025302;28;20482;-50
2022/01/07 08:26:54;;;;;;;5.60;5.00;;;-4.00;99.90;;;;;;5021870;28;20470;-50
2022/01/07 08:29:24;;;;;;;3.20;2.80;;;-4.10;99.90;;;;;;5022792;28;20497;-50
2022/01/07 08:34:56;;;;;;;3.13;2.00;;;-5.20;99.90;;;;;;5026086;28;20625;-50
2022/01/07 08:37:24;;;;;;;4.20;3.80;;;-5.50;99.90;;;;;;5023821;28;21023;-50
2022/01/07 08:39:53;;;;;;;4.35;3.95;;;-5.60;99.90;;;;;;5015373;28;20657;-52
2022/01/07 08:42:22;;;;;;;3.00;2.80;;;-5.40;99.90;;;;;;5015291;28;20596;-49
2022/01/07 08:44:51;;;;;;;4.07;3.50;;;-5.20;99.90;;;;;;5019331;28;20225;-49
2022/01/07 08:47:19;;;;;;;3.47;3.17;;;-4.90;99.90;;;;;;5017661;28;20455;-51
2022/01/07 08:49:47;;;;;;;3.80;3.40;;;-4.70;99.90;;;;;;5025538;28;20282;-49
2022/01/07 08:52:14;;;;;;;4.03;3.57;;;-4.50;99.90;;;;;;5021119;28;20458;-50
2022/01/07 08:54:42;;;;;;;9.40;5.90;;;-4.30;99.90;;;;;;5020387;28;20477;-49
2022/01/07 08:57:09;;;;;;;5.40;4.30;;;-4.20;99.90;;;;;;5020304;28;20489;-50
2022/01/07 08:59:36;;;;;;;4.60;3.93;;;-4.10;99.90;;;;;;5020833;28;20995;-49
2022/01/07 09:02:03;;;;;;;6.27;5.00;;;-4.10;99.90;;;;;;5029046;28;20950;-52
2022/01/07 09:04:31;;;;;;;6.63;4.07;;;-4.00;99.90;;;;;;5027215;28;20474;-49
2022/01/07 09:06:59;;;;;;;4.90;3.27;;;-4.00;99.90;;;;;;5024101;28;20474;-49
2022/01/07 09:09:26;;;;;;;3.93;3.57;;;-4.00;99.90;;;;;;5013058;28;20907;-51
2022/01/07 09:11:54;;;;;;;4.40;3.87;;;-3.90;99.90;;;;;;5016849;28;20552;-49
2022/01/07 09:14:21;;;;;;;13.70;12.53;;;-3.90;99.90;;;;;;5027781;28;20558;-52
2022/01/07 09:16:48;;;;;;;6.72;6.10;;;-4.00;99.90;;;;;;5012923;28;20477;-51
2022/01/07 09:19:15;;;;;;;37.90;20.10;;;-4.70;99.90;;;;;;5017512;28;20247;-50
2022/01/07 09:21:42;;;;;;;39.97;18.87;;;-4.80;99.90;;;;;;5022150;28;20515;-52
2022/01/07 09:24:10;;;;;;;32.90;17.60;;;-4.90;99.90;;;;;;5018531;28;20532;-49
2022/01/07 09:26:37;;;;;;;12.30;7.40;;;-5.00;99.90;;;;;;5012844;28;20490;-50
2022/01/07 09:29:04;;;;;;;13.15;8.15;;;-4.90;99.90;;;;;;5018504;28;20887;-50
2022/01/07 09:31:31;;;;;;;6.90;4.90;;;-4.80;99.90;;;;;;5019502;28;20230;-51
2022/01/07 09:33:58;;;;;;;8.50;4.85;;;-4.60;99.90;;;;;;5027686;28;20545;-49
2022/01/07 09:36:25;;;;;;;11.80;8.17;;;-4.60;99.90;;;;;;5025302;28;20227;-52
2022/01/07 09:38:52;;;;;;;31.77;16.57;;;-4.40;99.90;;;;;;5009270;28;20497;-49
2022/01/07 09:41:20;;;;;;;16.70;8.60;;;-4.30;99.90;;;;;;5017132;28;20900;-50
2022/01/07 09:43:47;;;;;;;13.83;7.80;;;-4.40;99.90;;;;;;5022032;28;20513;-52
2022/01/07 09:46:15;;;;;;;25.67;12.70;;;-4.70;99.90;;;;;;5021593;28;21003;-50
2022/01/07 09:48:43;;;;;;;29.23;16.00;;;-4.50;99.90;;;;;;5023132;28;20239;-50
2022/01/07 09:51:10;;;;;;;32.70;15.50;;;-4.40;99.90;;;;;;5023351;28;20445;-50
2022/01/07 09:53:37;;;;;;;36.40;18.03;;;-4.20;99.90;;;;;;5014854;28;20976;-51
2022/01/07 09:56:04;;;;;;;23.67;12.57;;;-4.00;99.90;;;;;;5024082;28;20482;-49
2022/01/07 09:58:33;;;;;;;6.53;4.20;;;-3.80;99.90;;;;;;5019683;28;20450;-50
2022/01/07 10:01:05;;;;;;;3.97;2.60;;;-3.70;99.90;;;;;;5019519;28;20482;-51
2022/01/07 10:03:40;;;;;;;5.90;4.27;;;-3.60;99.90;;;;;;5022341;28;20503;-50
2022/01/07 10:06:18;;;;;;;5.60;4.07;;;-3.50;99.90;;;;;;5023489;28;20477;-52
2022/01/07 10:08:46;;;;;;;5.53;3.87;;;-3.50;99.90;;;;;;5021158;28;20448;-50
2022/01/07 10:11:16;;;;;;;4.03;3.23;;;-3.80;99.90;;;;;;5017842;28;20528;-51
2022/01/07 10:13:49;;;;;;;2.53;2.33;;;-3.90;99.90;;;;;;5015478;28;20460;-51
2022/01/07 10:16:18;;;;;;;2.07;1.57;;;-4.20;99.90;;;;;;5022089;28;20475;-50
2022/01/07 10:18:47;;;;;;;2.70;1.40;;;-4.20;99.90;;;;;;5021068;28;20471;-52
2022/01/07 10:21:16;;;;;;;2.00;1.90;;;-3.90;99.90;;;;;;5025496;28;20894;-49
2022/01/07 10:23:43;;;;;;;1.73;1.63;;;-3.70;99.90;;;;;;5018132;28;20477;-49
2022/01/07 10:26:16;;;;;;;2.07;1.40;;;-3.50;99.90;;;;;;5009153;28;20480;-50
2022/01/07 10:28:44;;;;;;;5.30;3.47;;;-3.30;99.90;;;;;;5025174;28;20485;-50
2022/01/07 10:31:21;;;;;;;11.30;6.70;;;-3.10;99.90;;;;;;5022354;28;20434;-51
2022/01/07 10:33:49;;;;;;;19.03;11.20;;;-3.00;99.90;;;;;;5023778;28;20943;-51
2022/01/07 10:36:19;;;;;;;16.40;8.60;;;-3.00;99.90;;;;;;5016551;28;20444;-48
2022/01/07 10:38:51;;;;;;;23.57;9.97;;;-2.90;99.90;;;;;;5024610;28;20478;-50
2022/01/07 10:41:19;;;;;;;12.73;8.70;;;-3.00;99.90;;;;;;5020544;28;20540;-49
2022/01/07 10:43:47;;;;;;;4.73;3.60;;;-3.00;99.90;;;;;;5020299;28;20983;-51
2022/01/07 10:46:19;;;;;;;2.70;2.43;;;-2.80;99.90;;;;;;5021595;28;20486;-50
2022/01/07 10:48:50;;;;;;;43.10;20.90;;;-2.80;99.90;;;;;;5022123;28;20463;-50
2022/01/07 10:51:19;;;;;;;79.93;32.70;;;-2.60;99.90;;;;;;5022945;28;20791;-50
2022/01/07 10:53:52;;;;;;;84.53;34.60;;;-2.60;99.90;;;;;;5017199;28;20983;-48
2022/01/07 10:56:21;;;;;;;51.23;26.13;;;-2.40;99.90;;;;;;5019411;28;20467;-50
2022/01/07 10:58:57;;;;;;;3.90;3.43;;;-2.30;99.90;;;;;;5020738;28;20745;-49
2022/01/07 11:01:45;;;;;;;55.40;28.80;;;-2.20;99.90;;;;;;5023992;28;20506;-50
2022/01/07 11:04:14;;;;;;;66.53;35.17;;;-2.20;99.90;;;;;;5022108;28;20858;-50
2022/01/07 11:06:42;;;;;;;92.17;39.50;;;-2.10;99.90;;;;;;5014780;28;20478;-50
2022/01/07 11:09:12;;;;;;;82.40;40.57;;;-2.00;99.90;;;;;;5018552;28;20514;-49
2022/01/07 11:11:47;;;;;;;10.17;6.37;;;-1.80;99.90;;;;;;5011784;28;20444;-52
2022/01/07 11:14:18;;;;;;;71.00;38.17;;;-1.70;99.90;;;;;;5006784;28;20857;-50
2022/01/07 11:16:46;;;;;;;116.23;49.17;;;-1.60;99.90;;;;;;5007826;28;20494;-51
2022/01/07 11:19:19;;;;;;;39.90;23.30;;;-1.50;99.90;;;;;;5005351;28;20494;-50
2022/01/07 11:21:52;;;;;;;11.60;6.83;;;-1.40;99.90;;;;;;5013155;28;20514;-51
2022/01/07 11:24:41;;;;;;;2.90;2.60;;;-1.40;99.90;;;;;;5010316;28;20817;-50
2022/01/07 11:27:10;;;;;;;13.27;7.23;;;-1.40;99.90;;;;;;5007111;28;20487;-50
2022/01/07 11:29:39;;;;;;;4.80;3.90;;;-1.30;99.90;;;;;;5006267;28;21079;-50
2022/01/07 11:32:32;;;;;;;5.07;3.47;;;-1.30;99.90;;;;;;5009172;28;20572;-51
2022/01/07 11:35:49;;;;;;;2.40;2.03;;;-1.30;99.90;;;;;;5007732;28;20535;-50
2022/01/07 11:38:34;;;;;;;3.87;2.67;;;-1.20;99.90;;;;;;5007940;28;20950;-51
2022/01/07 11:41:02;;;;;;;3.53;3.23;;;-1.20;99.90;;;;;;5006208;28;20485;-49
2022/01/07 11:43:35;;;;;;;3.13;2.83;;;-1.20;99.90;;;;;;5010547;28;20590;-49
2022/01/07 11:46:31;;;;;;;10.90;6.63;;;-1.30;99.90;;;;;;5006061;28;20539;-50
2022/01/07 11:49:02;;;;;;;7.40;4.90;;;-1.30;99.90;;;;;;5003791;28;20855;-48
2022/01/07 11:51:41;;;;;;;3.80;2.83;;;-1.20;99.90;;;;;;5015859;28;20822;-50
2022/01/07 11:54:13;;;;;;;3.53;3.00;;;-1.20;99.90;;;;;;5019961;28;20509;-49
2022/01/07 11:56:41;;;;;;;2.97;2.70;;;-1.10;99.90;;;;;;5018485;28;20545;-50
2022/01/07 11:59:17;;;;;;;5.20;3.27;;;-1.00;99.90;;;;;;5024703;22;21106;-79
2022/01/07 12:01:44;;;;;;;3.53;3.23;;;-1.00;99.90;;;;;;5007383;28;20485;-79
2022/01/07 12:04:28;;;;;;;4.47;4.03;;;-1.00;99.90;;;;;;5011407;28;20543;-79
2022/01/07 12:06:56;;;;;;;3.17;2.87;;;-1.00;99.90;;;;;;5011020;28;20462;-79
2022/01/07 12:09:40;;;;;;;3.63;3.30;;;-1.10;99.90;;;;;;5011237;28;20556;-79
2022/01/07 12:12:10;;;;;;;5.03;4.60;;;-0.90;99.90;;;;;;5006855;28;20935;-79
2022/01/07 12:14:40;;;;;;;6.17;4.87;;;-0.80;99.90;;;;;;5011175;28;20498;-79
2022/01/07 12:17:13;;;;;;;4.33;3.60;;;-0.70;99.90;;;;;;5010926;28;20500;-79
2022/01/07 12:20:16;;;;;;;4.83;3.17;;;-0.60;99.90;;;;;;5010883;28;20521;-79
2022/01/07 12:22:52;;;;;;;1.87;1.70;;;-0.60;99.90;;;;;;5010250;28;20575;-79
2022/01/07 12:25:20;;;;;;;1.77;1.67;;;-0.50;99.90;;;;;;5016628;28;20463;-79
2022/01/07 12:27:47;;;;;;;3.00;2.13;;;-0.50;99.90;;;;;;5010624;28;20468;-79
2022/01/07 12:30:15;;;;;;;5.60;4.00;;;-0.40;99.90;;;;;;5011317;28;20449;-79
2022/01/07 12:32:42;;;;;;;6.57;3.70;;;-0.40;99.90;;;;;;5010677;28;20543;-79
2022/01/07 12:35:11;;;;;;;2.70;2.50;;;-0.40;99.90;;;;;;5014746;28;20450;-79
2022/01/07 12:37:39;;;;;;;3.70;2.03;;;-0.40;99.90;;;;;;5015308;28;20481;-79
2022/01/07 12:40:10;;;;;;;2.40;1.47;;;-0.30;99.90;;;;;;5017470;28;20446;-79
2022/01/07 12:42:40;;;;;;;2.40;1.77;;;-0.70;99.90;;;;;;5016941;28;20522;-79
2022/01/07 12:45:12;;;;;;;1.23;1.13;;;-1.10;99.90;;;;;;5015706;28;20455;-79
2022/01/07 12:47:39;;;;;;;1.80;1.60;;;-1.30;99.90;;;;;;5022757;28;20815;-79
2022/01/07 12:50:07;;;;;;;1.67;1.57;;;-1.30;99.90;;;;;;5021210;28;20442;-80
2022/01/07 12:52:36;;;;;;;2.00;1.70;;;-1.10;99.90;;;;;;5019197;28;20966;-79
2022/01/07 12:55:08;;;;;;;2.67;2.23;;;-1.00;99.90;;;;;;5018617;28;20454;-79
2022/01/07 12:57:37;;;;;;;2.17;1.97;;;-0.80;99.90;;;;;;5017666;28;20977;-79
2022/01/07 13:00:10;;;;;;;1.53;1.40;;;-0.80;99.90;;;;;;5016625;28;20459;-79